createdAt,value
2019-03-06T00:01:49.372Z,11.70
2019-03-06T00:04:17.471Z,12.80
2019-03-06T00:06:45.734Z,12.80
2019-03-06T00:09:13.831Z,13.08
2019-03-06T00:11:42.065Z,13.53
2019-03-06T00:14:10.208Z,12.90
2019-03-06T00:16:38.153Z,11.75
2019-03-06T00:19:06.295Z,12.80
2019-03-06T00:21:34.353Z,11.28
2019-03-06T00:24:04.383Z,12.23
2019-03-06T00:26:33.378Z,13.22
2019-03-06T00:29:01.997Z,11.57
2019-03-06T00:31:30.103Z,13.05
2019-03-06T00:33:58.244Z,10.85
2019-03-06T00:36:28.624Z,12.35
2019-03-06T00:38:56.698Z,13.48
2019-03-06T00:41:29.118Z,13.65
2019-03-06T00:43:58.852Z,11.53
2019-03-06T00:46:26.814Z,11.60
2019-03-06T00:48:54.923Z,12.15
2019-03-06T00:51:23.273Z,11.80
2019-03-06T00:53:51.253Z,11.50
2019-03-06T00:56:21.347Z,11.70
2019-03-06T00:58:50.278Z,11.70
2019-03-06T01:01:18.330Z,11.25
2019-03-06T01:03:46.280Z,11.63
2019-03-06T01:06:15.003Z,10.63
2019-03-06T01:08:42.938Z,11.50
2019-03-06T01:11:10.883Z,12.43
2019-03-06T01:13:39.186Z,12.80
2019-03-06T01:16:07.620Z,11.90
2019-03-06T01:18:35.545Z,11.60
2019-03-06T01:21:03.704Z,11.30
2019-03-06T01:23:31.665Z,13.30
2019-03-06T01:26:00.474Z,12.35
2019-03-06T01:28:28.654Z,13.88
2019-03-06T01:30:56.643Z,12.80
2019-03-06T01:33:46.913Z,12.43
2019-03-06T01:36:34.518Z,12.95
2019-03-06T01:39:28.177Z,12.60
2019-03-06T01:42:07.567Z,10.98
2019-03-06T01:44:39.883Z,12.58
2019-03-06T01:47:08.397Z,13.22
2019-03-06T01:49:36.804Z,12.60
2019-03-06T01:52:04.816Z,13.05
2019-03-06T01:54:32.884Z,12.15
2019-03-06T01:57:00.918Z,12.28
2019-03-06T01:59:30.204Z,11.15
2019-03-06T02:01:58.354Z,11.05
2019-03-06T02:04:26.322Z,12.73
2019-03-06T02:06:54.220Z,13.20
2019-03-06T02:09:26.056Z,13.00
2019-03-06T02:11:54.231Z,11.75
2019-03-06T02:14:22.376Z,12.15
2019-03-06T02:16:50.425Z,12.00
2019-03-06T02:19:18.380Z,11.78
2019-03-06T02:21:46.314Z,11.45
2019-03-06T02:24:14.297Z,12.93
2019-03-06T02:26:42.867Z,12.30
2019-03-06T02:29:11.041Z,12.40
2019-03-06T02:31:40.083Z,11.85
2019-03-06T02:34:10.364Z,11.48
2019-03-06T02:36:40.869Z,11.00
2019-03-06T02:39:08.983Z,12.05
2019-03-06T02:41:38.048Z,11.40
2019-03-06T02:44:06.155Z,12.20
2019-03-06T02:46:34.148Z,11.30
2019-03-06T02:49:02.964Z,11.43
2019-03-06T02:51:32.635Z,11.50
2019-03-06T02:54:00.674Z,10.13
2019-03-06T02:56:28.835Z,10.23
2019-03-06T02:59:10.463Z,11.45
2019-03-06T03:02:01.035Z,9.78
2019-03-06T03:04:36.233Z,9.10
2019-03-06T03:07:07.336Z,10.65
2019-03-06T03:09:35.688Z,10.60
2019-03-06T03:12:03.745Z,10.95
2019-03-06T03:14:31.727Z,10.53
2019-03-06T03:16:59.805Z,9.93
2019-03-06T03:19:27.883Z,9.60
2019-03-06T03:21:55.792Z,9.48
2019-03-06T03:24:23.798Z,10.35
2019-03-06T03:26:51.806Z,11.43
2019-03-06T03:29:19.789Z,10.10
2019-03-06T03:31:47.778Z,10.53
2019-03-06T03:34:15.713Z,10.82
2019-03-06T03:36:44.125Z,9.68
2019-03-06T03:39:12.125Z,9.80
2019-03-06T03:41:40.100Z,10.48
2019-03-06T03:44:08.070Z,11.10
2019-03-06T03:46:36.064Z,11.15
2019-03-06T03:49:04.013Z,10.60
2019-03-06T03:51:32.290Z,11.57
2019-03-06T03:54:00.243Z,11.20
2019-03-06T03:56:28.168Z,10.90
2019-03-06T03:58:56.163Z,11.38
2019-03-06T04:01:24.202Z,11.08
2019-03-06T04:03:52.227Z,11.48
2019-03-06T04:06:20.205Z,12.03
2019-03-06T04:08:48.219Z,12.78
2019-03-06T04:11:16.275Z,12.55
2019-03-06T04:13:44.235Z,12.23
2019-03-06T04:16:12.196Z,12.18
2019-03-06T04:18:40.215Z,11.78
2019-03-06T04:21:08.180Z,11.73
2019-03-06T04:23:36.209Z,12.03
2019-03-06T04:26:04.345Z,11.97
2019-03-06T04:28:32.319Z,11.63
2019-03-06T04:31:00.337Z,12.05
2019-03-06T04:33:28.655Z,12.45
2019-03-06T04:35:56.557Z,11.43
2019-03-06T04:38:24.475Z,10.28
2019-03-06T04:40:53.406Z,11.30
2019-03-06T04:43:21.452Z,13.18
2019-03-06T04:45:49.377Z,12.00
2019-03-06T04:48:17.459Z,11.30
2019-03-06T04:50:45.378Z,11.50
2019-03-06T04:53:13.382Z,11.57
2019-03-06T04:55:41.363Z,10.48
2019-03-06T04:58:09.404Z,12.28
2019-03-06T05:00:37.629Z,11.73
2019-03-06T05:03:05.611Z,12.40
2019-03-06T05:05:33.577Z,12.50
2019-03-06T05:08:01.547Z,12.63
2019-03-06T05:10:29.612Z,12.70
2019-03-06T05:12:57.550Z,13.95
2019-03-06T05:15:25.543Z,12.58
2019-03-06T05:17:59.117Z,12.53
2019-03-06T05:20:27.128Z,13.40
2019-03-06T05:22:55.119Z,13.98
2019-03-06T05:25:23.461Z,15.15
2019-03-06T05:27:51.683Z,14.55
2019-03-06T05:30:21.701Z,14.83
2019-03-06T05:32:49.911Z,15.80
2019-03-06T05:36:11.843Z,14.00
2019-03-06T05:39:09.798Z,14.03
2019-03-06T05:41:37.840Z,13.95
2019-03-06T05:44:06.060Z,13.88
2019-03-06T05:46:34.109Z,14.10
2019-03-06T05:49:02.097Z,14.03
2019-03-06T05:51:30.159Z,14.43
2019-03-06T05:53:58.201Z,14.68
2019-03-06T05:56:26.388Z,14.70
2019-03-06T05:58:54.379Z,15.13
2019-03-06T06:01:22.333Z,14.93
2019-03-06T06:03:50.716Z,14.40
2019-03-06T06:06:18.885Z,15.40
2019-03-06T06:08:46.860Z,14.35
2019-03-06T06:11:14.752Z,14.83
2019-03-06T06:13:42.811Z,14.00
2019-03-06T06:16:10.987Z,14.28
2019-03-06T06:18:39.137Z,14.95
2019-03-06T06:21:41.643Z,15.72
2019-03-06T06:24:13.175Z,14.95
2019-03-06T06:26:41.233Z,14.50
2019-03-06T06:29:09.210Z,15.63
2019-03-06T06:31:37.594Z,17.55
2019-03-06T06:34:06.623Z,16.55
2019-03-06T06:36:34.658Z,15.72
2019-03-06T06:39:04.153Z,14.93
2019-03-06T06:41:32.312Z,12.82
2019-03-06T06:44:00.306Z,14.83
2019-03-06T06:46:29.610Z,17.12
2019-03-06T06:48:57.874Z,14.55
2019-03-06T06:52:12.637Z,13.28
2019-03-06T06:55:50.956Z,13.75
2019-03-06T06:59:03.769Z,12.88
2019-03-06T07:03:02.401Z,11.25
2019-03-06T07:06:07.843Z,10.10
2019-03-06T07:08:53.245Z,10.30
2019-03-06T07:11:52.521Z,10.43
2019-03-06T07:14:38.546Z,9.60
2019-03-06T07:17:28.641Z,10.05
2019-03-06T07:20:05.078Z,9.40
2019-03-06T07:22:44.523Z,8.60
2019-03-06T07:25:46.633Z,9.73
2019-03-06T07:28:28.990Z,8.98
2019-03-06T07:31:12.656Z,9.48
2019-03-06T07:33:56.105Z,8.30
2019-03-06T07:36:48.146Z,7.80
2019-03-06T07:39:22.539Z,8.80
2019-03-06T07:42:12.740Z,7.47
2019-03-06T07:45:00.072Z,6.45
2019-03-06T07:47:59.607Z,6.67
2019-03-06T07:50:45.106Z,6.45
2019-03-06T07:54:06.028Z,7.25
2019-03-06T07:56:40.144Z,6.67
2019-03-06T07:59:08.101Z,6.15
2019-03-06T08:01:41.750Z,6.65
2019-03-06T08:04:15.006Z,6.75
2019-03-06T08:06:48.018Z,6.45
2019-03-06T08:09:17.792Z,7.75
2019-03-06T08:11:53.563Z,6.15
2019-03-06T08:14:59.279Z,6.42
2019-03-06T08:17:49.681Z,4.92
2019-03-06T08:20:40.189Z,5.50
2019-03-06T08:23:45.669Z,5.10
2019-03-06T08:26:13.827Z,5.00
2019-03-06T08:28:41.921Z,4.62
2019-03-06T08:31:16.411Z,4.58
2019-03-06T08:33:44.426Z,4.50
2019-03-06T08:36:12.366Z,4.45
2019-03-06T08:38:40.338Z,4.45
2019-03-06T08:41:08.465Z,3.90
2019-03-06T08:43:36.645Z,5.80
2019-03-06T08:46:33.139Z,3.83
2019-03-06T08:49:24.479Z,3.85
2019-03-06T08:52:17.821Z,4.27
2019-03-06T08:55:23.353Z,4.00
2019-03-06T08:58:13.944Z,3.80
2019-03-06T09:01:04.357Z,3.80
2019-03-06T09:03:58.270Z,2.77
2019-03-06T09:06:47.039Z,3.77
2019-03-06T09:09:34.738Z,3.57
2019-03-06T09:12:20.505Z,3.13
2019-03-06T09:15:13.865Z,3.43
2019-03-06T09:18:09.268Z,2.83
2019-03-06T09:20:48.535Z,3.20
2019-03-06T09:23:41.922Z,2.90
2019-03-06T09:26:24.811Z,1.87
2019-03-06T09:29:09.338Z,2.10
2019-03-06T09:31:56.982Z,2.17
2019-03-06T09:34:39.316Z,2.30
2019-03-06T09:37:24.113Z,2.37
2019-03-06T09:40:02.385Z,2.80
2019-03-06T09:42:56.159Z,2.20
2019-03-06T09:45:43.831Z,1.83
2019-03-06T09:48:37.065Z,2.10
2019-03-06T09:51:27.421Z,1.73
2019-03-06T09:54:16.223Z,1.60
2019-03-06T09:56:52.433Z,1.47
2019-03-06T09:59:25.385Z,1.73
2019-03-06T10:02:12.968Z,0.87
2019-03-06T10:05:03.236Z,1.10
2019-03-06T10:07:46.386Z,0.70
2019-03-06T10:10:45.784Z,1.10
2019-03-06T10:13:25.139Z,0.87
2019-03-06T10:16:15.580Z,1.03
2019-03-06T10:18:50.175Z,1.40
2019-03-06T10:21:18.179Z,1.53
2019-03-06T10:23:46.309Z,1.33
2019-03-06T10:26:14.438Z,1.00
2019-03-06T10:28:42.681Z,1.07
2019-03-06T10:31:10.956Z,1.23
2019-03-06T10:33:39.021Z,1.30
2019-03-06T10:36:07.491Z,1.27
2019-03-06T10:38:35.521Z,1.03
2019-03-06T10:41:03.844Z,0.93
2019-03-06T10:43:31.850Z,1.17
2019-03-06T10:45:59.939Z,1.00
2019-03-06T10:48:28.277Z,1.17
2019-03-06T10:50:56.388Z,1.20
2019-03-06T10:53:24.366Z,1.70
2019-03-06T10:55:52.723Z,2.17
2019-03-06T10:58:20.798Z,1.63
2019-03-06T11:00:51.234Z,1.77
2019-03-06T11:03:19.417Z,1.33
2019-03-06T11:05:48.411Z,0.90
2019-03-06T11:08:17.725Z,0.80
2019-03-06T11:10:45.850Z,1.00
2019-03-06T11:13:13.794Z,1.30
2019-03-06T11:15:42.277Z,1.23
2019-03-06T11:18:10.823Z,1.43
2019-03-06T11:20:40.744Z,0.80
2019-03-06T11:23:09.866Z,1.43
2019-03-06T11:25:39.487Z,1.37
2019-03-06T11:28:10.415Z,0.90
2019-03-06T11:30:44.268Z,1.30
2019-03-06T11:33:12.562Z,1.33
2019-03-06T11:35:40.961Z,0.90
2019-03-06T11:38:09.588Z,0.97
2019-03-06T11:40:37.746Z,1.10
2019-03-06T11:43:06.929Z,1.33
2019-03-06T11:45:36.948Z,0.93
2019-03-06T11:48:06.617Z,1.43
2019-03-06T11:50:40.940Z,1.40
2019-03-06T11:53:05.118Z,1.00
2019-03-06T11:55:33.606Z,1.57
2019-03-06T11:58:01.709Z,1.17
2019-03-06T12:00:35.178Z,1.50
2019-03-06T12:03:04.341Z,1.40
2019-03-06T12:05:34.528Z,1.00
2019-03-06T12:08:05.607Z,1.20
2019-03-06T12:10:33.653Z,1.47
2019-03-06T12:13:01.710Z,1.30
2019-03-06T12:15:29.760Z,1.20
2019-03-06T12:17:58.000Z,0.83
2019-03-06T12:20:25.951Z,1.10
2019-03-06T12:22:54.100Z,1.10
2019-03-06T12:25:23.492Z,1.13
2019-03-06T12:27:52.369Z,1.27
2019-03-06T12:30:20.533Z,1.03
2019-03-06T12:32:48.567Z,1.13
2019-03-06T12:35:16.941Z,1.03
2019-03-06T12:37:47.228Z,1.30
2019-03-06T12:40:15.613Z,1.50
2019-03-06T12:42:45.566Z,1.40
2019-03-06T12:45:14.744Z,1.13
2019-03-06T12:47:44.820Z,1.00
2019-03-06T12:50:16.666Z,1.00
2019-03-06T12:52:45.948Z,1.00
2019-03-06T12:55:14.152Z,1.30
2019-03-06T12:57:42.157Z,1.10
2019-03-06T13:00:18.497Z,1.00
2019-03-06T13:02:48.081Z,1.50
2019-03-06T13:05:17.289Z,1.03
2019-03-06T13:07:45.372Z,1.30
2019-03-06T13:10:13.593Z,1.30
2019-03-06T13:12:42.124Z,1.00
2019-03-06T13:15:13.507Z,1.00
2019-03-06T13:17:43.788Z,1.17
2019-03-06T13:20:12.520Z,1.23
2019-03-06T13:22:44.052Z,1.50
2019-03-06T13:25:14.170Z,1.30
2019-03-06T13:27:42.439Z,1.40
2019-03-06T13:30:18.767Z,1.17
2019-03-06T13:32:57.158Z,1.33
2019-03-06T13:35:25.881Z,1.10
2019-03-06T13:37:53.967Z,1.20
2019-03-06T13:40:21.895Z,1.00
2019-03-06T13:42:50.951Z,1.20
2019-03-06T13:45:19.467Z,1.20
2019-03-06T13:47:47.654Z,1.70
2019-03-06T13:50:15.797Z,1.20
2019-03-06T13:52:43.799Z,1.10
2019-03-06T13:55:12.293Z,1.07
2019-03-06T13:57:40.420Z,1.50
2019-03-06T14:00:11.803Z,1.37
2019-03-06T14:02:40.084Z,1.20
2019-03-06T14:05:08.559Z,0.97
2019-03-06T14:07:36.739Z,1.20
2019-03-06T14:10:05.431Z,1.37
2019-03-06T14:12:34.576Z,1.23
2019-03-06T14:15:03.124Z,1.37
2019-03-06T14:17:31.538Z,1.37
2019-03-06T14:19:59.518Z,1.20
2019-03-06T14:22:27.547Z,0.83
2019-03-06T14:24:55.766Z,1.23
2019-03-06T14:27:24.708Z,1.27
2019-03-06T14:29:52.762Z,1.00
2019-03-06T14:32:21.215Z,1.50
2019-03-06T14:34:49.464Z,1.27
2019-03-06T14:37:18.294Z,0.80
2019-03-06T14:39:49.305Z,1.00
2019-03-06T14:42:17.418Z,1.20
2019-03-06T14:44:45.691Z,1.30
2019-03-06T14:47:15.009Z,1.13
2019-03-06T14:49:42.953Z,0.93
2019-03-06T14:52:13.863Z,1.00
2019-03-06T14:54:42.397Z,1.00
2019-03-06T14:57:10.758Z,0.70
2019-03-06T14:59:38.687Z,1.30
2019-03-06T15:02:10.486Z,1.10
2019-03-06T15:04:40.414Z,1.20
2019-03-06T15:07:12.669Z,1.23
2019-03-06T15:09:41.813Z,1.00
2019-03-06T15:12:10.070Z,1.30
2019-03-06T15:14:39.192Z,1.40
2019-03-06T15:17:07.433Z,0.90
2019-03-06T15:19:35.588Z,0.80
2019-03-06T15:27:48.755Z,1.30
2019-03-06T15:30:17.706Z,0.80
2019-03-06T15:32:51.722Z,1.07
2019-03-06T15:38:09.736Z,1.90
2019-03-06T15:43:40.759Z,1.77
2019-03-06T15:46:08.938Z,0.97
2019-03-06T15:48:37.960Z,0.90
2019-03-06T15:51:06.490Z,1.17
2019-03-06T15:53:34.801Z,0.93
2019-03-06T15:56:02.781Z,1.33
2019-03-06T15:58:35.598Z,1.00
2019-03-06T16:01:04.549Z,1.20
2019-03-06T16:03:32.889Z,1.13
2019-03-06T16:06:01.201Z,1.17
2019-03-06T16:08:29.823Z,1.30
2019-03-06T16:10:58.009Z,1.17
2019-03-06T16:13:26.246Z,1.30
2019-03-06T16:15:55.272Z,1.23
2019-03-06T16:18:23.610Z,1.10
2019-03-06T16:20:51.725Z,1.23
2019-03-06T16:23:20.329Z,1.50
2019-03-06T16:25:48.366Z,1.30
2019-03-06T16:28:16.703Z,1.23
2019-03-06T16:30:45.259Z,1.00
2019-03-06T16:33:13.462Z,1.23
2019-03-06T16:35:41.717Z,1.10
2019-03-06T16:38:09.862Z,1.17
2019-03-06T16:40:38.150Z,1.03
2019-03-06T16:43:06.917Z,1.07
2019-03-06T16:45:39.473Z,1.40
2019-03-06T16:48:08.100Z,1.90
2019-03-06T16:50:36.362Z,1.30
2019-03-06T16:53:04.962Z,1.40
2019-03-06T16:55:33.226Z,1.40
2019-03-06T16:58:05.897Z,1.53
2019-03-06T17:00:36.747Z,1.33
2019-03-06T17:03:08.699Z,1.40
2019-03-06T17:05:37.362Z,1.10
2019-03-06T17:08:06.237Z,1.30
2019-03-06T17:10:38.231Z,2.00
2019-03-06T17:13:06.766Z,1.00
2019-03-06T17:15:35.097Z,1.50
2019-03-06T17:18:03.699Z,1.33
2019-03-06T17:20:31.976Z,2.10
2019-03-06T17:23:00.221Z,1.70
2019-03-06T17:25:34.854Z,1.33
2019-03-06T17:28:03.169Z,1.77
2019-03-06T17:30:32.368Z,1.50
2019-03-06T17:33:03.178Z,1.20
2019-03-06T17:35:31.924Z,1.40
2019-03-06T17:38:00.495Z,1.50
2019-03-06T17:40:28.905Z,1.30
2019-03-06T17:42:57.605Z,1.07
2019-03-06T17:45:26.099Z,1.43
2019-03-06T17:47:54.264Z,1.40
2019-03-06T17:50:22.950Z,1.50
2019-03-06T17:52:51.383Z,1.50
2019-03-06T17:55:24.423Z,1.47
2019-03-06T17:57:52.622Z,1.40
2019-03-06T18:00:25.731Z,1.87
2019-03-06T18:02:54.171Z,1.57
2019-03-06T18:05:22.766Z,1.87
2019-03-06T18:07:51.315Z,1.67
2019-03-06T18:10:19.696Z,2.47
2019-03-06T18:12:47.858Z,1.97
2019-03-06T18:15:16.163Z,1.40
2019-03-06T18:17:44.649Z,1.60
2019-03-06T18:20:13.790Z,1.87
2019-03-06T18:22:43.035Z,1.40
2019-03-06T18:25:14.019Z,1.57
2019-03-06T18:27:42.219Z,1.90
2019-03-06T18:30:13.565Z,2.30
2019-03-06T18:32:42.117Z,2.23
2019-03-06T18:35:11.958Z,1.77
2019-03-06T18:37:40.106Z,2.10
2019-03-06T18:40:11.246Z,2.20
2019-03-06T18:42:39.845Z,2.70
2019-03-06T18:45:11.367Z,2.40
2019-03-06T18:47:39.998Z,2.70
2019-03-06T18:50:10.681Z,3.20
2019-03-06T18:52:38.891Z,2.50
2019-03-06T18:55:08.345Z,2.70
2019-03-06T18:57:36.988Z,8.30
2019-03-06T19:00:08.575Z,3.77
2019-03-06T19:02:37.401Z,2.90
2019-03-06T19:05:06.323Z,3.47
2019-03-06T19:07:35.873Z,7.20
2019-03-06T19:10:05.800Z,4.27
2019-03-06T19:12:34.461Z,2.90
2019-03-06T19:15:03.678Z,2.43
2019-03-06T19:17:33.928Z,2.17
2019-03-06T19:20:06.818Z,2.20
2019-03-06T19:22:35.811Z,3.53
2019-03-06T19:25:04.778Z,3.23
2019-03-06T19:27:33.687Z,3.80
2019-03-06T19:30:02.223Z,3.10
2019-03-06T19:32:30.831Z,3.07
2019-03-06T19:34:59.819Z,3.20
2019-03-06T19:37:28.328Z,3.47
2019-03-06T19:39:56.800Z,3.37
2019-03-06T19:42:25.195Z,3.73
2019-03-06T19:44:53.658Z,3.60
2019-03-06T19:47:22.307Z,3.00
2019-03-06T19:49:50.596Z,4.60
2019-03-06T19:52:21.402Z,4.30
2019-03-06T19:54:51.347Z,3.53
2019-03-06T19:57:19.651Z,4.80
2019-03-06T19:59:49.305Z,4.20
2019-03-06T20:02:17.823Z,4.50
2019-03-06T20:04:46.090Z,3.80
2019-03-06T20:07:14.327Z,4.60
2019-03-06T20:09:42.740Z,5.60
2019-03-06T20:12:11.369Z,4.50
2019-03-06T20:14:39.760Z,4.80
2019-03-06T20:17:08.168Z,4.97
2019-03-06T20:19:36.605Z,4.50
2019-03-06T20:22:05.333Z,5.23
2019-03-06T20:24:33.709Z,4.40
2019-03-06T20:27:01.991Z,4.70
2019-03-06T20:29:30.194Z,4.70
2019-03-06T20:32:00.337Z,4.37
2019-03-06T20:34:29.660Z,6.20
2019-03-06T20:36:57.867Z,4.57
2019-03-06T20:39:26.929Z,4.53
2019-03-06T20:41:55.195Z,5.30
2019-03-06T20:44:23.364Z,5.30
2019-03-06T20:46:51.452Z,5.43
2019-03-06T20:49:19.637Z,4.70
2019-03-06T20:51:48.115Z,4.10
2019-03-06T20:54:16.237Z,3.80
2019-03-06T20:56:44.357Z,4.00
2019-03-06T20:59:13.811Z,4.60
2019-03-06T21:01:42.030Z,4.30
2019-03-06T21:04:11.278Z,3.87
2019-03-06T21:06:39.655Z,4.83
2019-03-06T21:09:08.434Z,4.13
2019-03-06T21:11:37.942Z,4.50
2019-03-06T21:14:06.372Z,4.77
2019-03-06T21:16:34.491Z,4.40
2019-03-06T21:19:03.914Z,5.57
2019-03-06T21:21:32.257Z,3.57
2019-03-06T21:24:00.771Z,3.67
2019-03-06T21:26:28.991Z,7.25
2019-03-06T21:28:57.447Z,6.70
2019-03-06T21:31:25.903Z,9.70
2019-03-06T21:33:54.012Z,10.80
2019-03-06T21:36:22.142Z,11.37
2019-03-06T21:38:50.195Z,10.70
2019-03-06T21:41:18.287Z,10.23
2019-03-06T21:43:46.543Z,6.90
2019-03-06T21:46:15.320Z,9.07
2019-03-06T21:48:43.435Z,9.27
2019-03-06T21:51:11.682Z,5.80
2019-03-06T21:53:39.781Z,6.00
2019-03-06T21:56:07.899Z,5.10
2019-03-06T21:58:35.977Z,6.45
2019-03-06T22:01:05.032Z,6.22
2019-03-06T22:03:33.280Z,5.60
2019-03-06T22:06:01.398Z,6.20
2019-03-06T22:08:29.519Z,5.53
2019-03-06T22:10:58.587Z,3.80
2019-03-06T22:13:26.615Z,4.60
2019-03-06T22:15:54.791Z,5.65
2019-03-06T22:18:23.087Z,4.60
2019-03-06T22:20:51.210Z,4.90
2019-03-06T22:23:19.388Z,3.20
2019-03-06T22:25:47.512Z,3.70
2019-03-06T22:28:15.802Z,4.07
2019-03-06T22:30:43.858Z,3.63
2019-03-06T22:33:11.867Z,2.20
2019-03-06T22:35:40.179Z,3.55
2019-03-06T22:38:08.172Z,2.75
2019-03-06T22:40:36.188Z,2.60
2019-03-06T22:43:04.546Z,3.60
2019-03-06T22:45:33.338Z,3.10
2019-03-06T22:48:01.376Z,2.90
2019-03-06T22:50:29.565Z,3.10
2019-03-06T22:52:57.700Z,2.10
2019-03-06T22:55:25.607Z,2.40
2019-03-06T22:57:53.577Z,2.17
2019-03-06T23:00:43.431Z,3.20
2019-03-06T23:03:14.124Z,4.23
2019-03-06T23:05:42.331Z,3.62
2019-03-06T23:08:10.851Z,3.83
2019-03-06T23:10:38.802Z,3.30
2019-03-06T23:13:06.765Z,3.75
2019-03-06T23:15:34.766Z,4.65
2019-03-06T23:18:02.794Z,4.40
2019-03-06T23:20:30.784Z,3.80
2019-03-06T23:22:58.809Z,3.27
2019-03-06T23:25:26.708Z,3.90
2019-03-06T23:27:54.676Z,4.10
2019-03-06T23:30:22.667Z,4.75
2019-03-06T23:32:50.829Z,3.70
2019-03-06T23:35:19.029Z,3.30
2019-03-06T23:37:47.362Z,3.40
2019-03-06T23:40:15.305Z,3.33
2019-03-06T23:42:44.028Z,3.90
2019-03-06T23:45:12.066Z,4.10
2019-03-06T23:47:40.271Z,3.55
2019-03-06T23:50:08.459Z,4.03
2019-03-06T23:52:57.206Z,4.12
2019-03-06T23:55:27.167Z,3.92
2019-03-06T23:57:55.345Z,3.55
